createdAt,value
2018-03-19T00:01:16.675Z,7.03
2018-03-19T00:03:44.375Z,6.62
2018-03-19T00:06:11.874Z,6.18
2018-03-19T00:08:40.210Z,7.50
2018-03-19T00:11:07.848Z,7.20
2018-03-19T00:13:35.387Z,6.82
2018-03-19T00:16:02.905Z,6.32
2018-03-19T00:18:30.389Z,7.90
2018-03-19T00:20:58.654Z,7.15
2018-03-19T00:23:26.223Z,5.57
2018-03-19T00:25:54.506Z,6.47
2018-03-19T00:28:22.828Z,6.75
2018-03-19T00:30:50.342Z,6.55
2018-03-19T00:33:18.590Z,6.80
2018-03-19T00:35:46.078Z,5.50
2018-03-19T00:38:14.345Z,5.93
2018-03-19T00:40:42.593Z,6.78
2018-03-19T00:43:10.166Z,6.45
2018-03-19T00:45:37.656Z,6.07
2018-03-19T00:48:05.142Z,7.40
2018-03-19T00:50:32.647Z,5.65
2018-03-19T00:53:00.163Z,5.82
2018-03-19T00:58:01.695Z,6.37
2018-03-19T01:00:29.186Z,6.45
2018-03-19T01:02:56.733Z,6.00
2018-03-19T01:05:24.324Z,6.07
2018-03-19T01:07:51.849Z,6.40
2018-03-19T01:10:19.378Z,6.78
2018-03-19T01:12:47.648Z,5.60
2018-03-19T01:15:15.122Z,6.65
2018-03-19T01:17:43.381Z,5.95
2018-03-19T01:20:10.942Z,5.57
2018-03-19T01:22:39.232Z,5.53
2018-03-19T01:25:06.759Z,6.20
2018-03-19T01:27:34.481Z,5.55
2018-03-19T01:30:02.061Z,7.05
2018-03-19T01:32:29.651Z,6.18
2018-03-19T01:34:57.226Z,5.15
2018-03-19T01:37:24.819Z,6.22
2018-03-19T01:39:52.373Z,5.65
2018-03-19T01:42:19.961Z,6.10
2018-03-19T01:44:47.494Z,6.28
2018-03-19T01:47:15.039Z,5.85
2018-03-19T01:49:42.617Z,7.00
2018-03-19T01:52:10.180Z,5.95
2018-03-19T01:54:37.810Z,5.60
2018-03-19T01:57:06.165Z,5.75
2018-03-19T01:59:33.817Z,5.78
2018-03-19T02:02:01.402Z,7.62
2018-03-19T02:04:29.662Z,6.18
2018-03-19T02:06:57.150Z,6.00
2018-03-19T02:09:24.634Z,5.35
2018-03-19T02:11:52.199Z,5.45
2018-03-19T02:14:19.694Z,6.25
2018-03-19T02:16:47.349Z,5.53
2018-03-19T02:19:14.949Z,5.95
2018-03-19T02:21:42.527Z,5.90
2018-03-19T02:24:10.138Z,5.87
2018-03-19T02:26:37.658Z,5.60
2018-03-19T02:29:05.132Z,6.07
2018-03-19T02:31:32.781Z,6.12
2018-03-19T02:34:00.324Z,6.43
2018-03-19T02:36:27.960Z,6.07
2018-03-19T02:38:55.492Z,6.37
2018-03-19T02:41:23.054Z,5.68
2018-03-19T02:43:50.693Z,6.90
2018-03-19T02:46:18.198Z,6.28
2018-03-19T02:48:46.476Z,5.45
2018-03-19T02:51:14.858Z,5.95
2018-03-19T02:53:42.414Z,5.80
2018-03-19T02:56:10.715Z,5.28
2018-03-19T02:58:38.202Z,6.43
2018-03-19T03:01:05.682Z,5.50
2018-03-19T03:03:33.180Z,5.32
2018-03-19T03:06:00.665Z,5.80
2018-03-19T03:08:28.420Z,5.50
2018-03-19T03:10:56.023Z,5.57
2018-03-19T03:13:24.455Z,5.18
2018-03-19T03:15:51.988Z,4.93
2018-03-19T03:18:20.250Z,5.65
2018-03-19T03:20:47.734Z,5.20
2018-03-19T03:23:15.214Z,5.25
2018-03-19T03:25:42.722Z,5.47
2018-03-19T03:28:10.207Z,5.35
2018-03-19T03:30:37.697Z,4.87
2018-03-19T03:33:05.185Z,5.68
2018-03-19T03:35:32.686Z,6.55
2018-03-19T03:38:00.166Z,5.18
2018-03-19T03:40:27.658Z,5.22
2018-03-19T03:42:55.153Z,5.10
2018-03-19T03:45:23.409Z,4.75
2018-03-19T03:47:50.886Z,4.87
2018-03-19T03:50:19.134Z,6.70
2018-03-19T03:52:46.920Z,5.25
2018-03-19T03:55:15.190Z,5.12
2018-03-19T03:57:44.082Z,5.65
2018-03-19T04:00:12.446Z,5.45
2018-03-19T04:02:40.795Z,5.47
2018-03-19T04:05:08.443Z,4.78
2018-03-19T04:07:36.212Z,4.75
2018-03-19T04:10:03.751Z,5.25
2018-03-19T04:12:31.428Z,5.28
2018-03-19T04:14:59.037Z,6.22
2018-03-19T04:17:26.514Z,5.00
2018-03-19T04:19:54.763Z,5.15
2018-03-19T04:22:22.359Z,5.53
2018-03-19T04:24:49.962Z,5.80
2018-03-19T04:27:17.535Z,4.80
2018-03-19T04:29:46.099Z,5.20
2018-03-19T04:32:13.648Z,5.47
2018-03-19T04:34:41.410Z,5.62
2018-03-19T04:37:08.993Z,5.47
2018-03-19T04:39:36.564Z,5.57
2018-03-19T04:42:04.147Z,5.18
2018-03-19T04:44:32.683Z,6.10
2018-03-19T04:47:00.995Z,5.45
2018-03-19T04:49:28.575Z,5.25
2018-03-19T04:51:56.889Z,5.00
2018-03-19T04:54:24.401Z,6.25
2018-03-19T04:56:52.112Z,5.35
2018-03-19T04:59:19.693Z,5.03
2018-03-19T05:01:47.243Z,5.45
2018-03-19T05:04:14.820Z,5.78
2018-03-19T05:06:42.351Z,6.10
2018-03-19T05:09:09.838Z,6.62
2018-03-19T05:11:37.323Z,5.28
2018-03-19T05:14:04.814Z,6.22
2018-03-19T05:16:32.376Z,5.20
2018-03-19T05:18:59.890Z,5.30
2018-03-19T05:21:27.369Z,5.47
2018-03-19T05:23:55.630Z,4.72
2018-03-19T05:26:23.911Z,5.70
2018-03-19T05:28:51.395Z,5.80
2018-03-19T05:31:18.941Z,5.40
2018-03-19T05:33:47.226Z,5.50
2018-03-19T05:36:15.470Z,5.72
2018-03-19T05:41:16.934Z,7.00
2018-03-19T05:43:44.422Z,5.53
2018-03-19T05:46:12.666Z,5.72
2018-03-19T05:48:40.498Z,5.80
2018-03-19T05:51:07.978Z,5.85
2018-03-19T05:53:35.458Z,6.95
2018-03-19T05:56:03.190Z,6.40
2018-03-19T05:58:30.702Z,6.68
2018-03-19T06:00:58.954Z,5.75
2018-03-19T06:03:26.471Z,5.93
2018-03-19T06:05:53.978Z,5.10
2018-03-19T06:08:22.317Z,5.85
2018-03-19T06:10:49.877Z,6.05
2018-03-19T06:13:17.397Z,5.50
2018-03-19T06:15:45.726Z,6.35
2018-03-19T06:18:13.231Z,6.68
2018-03-19T06:20:41.543Z,7.00
2018-03-19T06:23:09.037Z,6.30
2018-03-19T06:25:36.624Z,6.25
2018-03-19T06:28:05.044Z,6.18
2018-03-19T06:30:32.610Z,6.28
2018-03-19T06:33:00.190Z,5.47
2018-03-19T06:35:27.734Z,6.82
2018-03-19T06:37:55.290Z,7.72
2018-03-19T06:40:22.779Z,6.40
2018-03-19T06:42:50.258Z,5.70
2018-03-19T06:45:18.580Z,6.05
2018-03-19T06:47:46.141Z,6.43
2018-03-19T06:50:13.714Z,6.37
2018-03-19T06:52:41.357Z,6.15
2018-03-19T06:55:09.282Z,6.18
2018-03-19T06:57:37.595Z,6.10
2018-03-19T07:00:05.192Z,7.90
2018-03-19T07:02:33.524Z,6.87
2018-03-19T07:05:01.155Z,6.60
2018-03-19T07:07:28.761Z,6.55
2018-03-19T07:09:56.344Z,6.68
2018-03-19T07:12:24.023Z,6.22
2018-03-19T07:14:51.574Z,6.62
2018-03-19T07:17:19.199Z,5.70
2018-03-19T07:19:47.603Z,5.93
2018-03-19T07:22:15.206Z,6.82
2018-03-19T07:24:43.491Z,6.07
2018-03-19T07:27:11.762Z,6.87
2018-03-19T07:29:40.033Z,6.03
2018-03-19T07:32:08.439Z,5.62
2018-03-19T07:34:36.840Z,6.55
2018-03-19T07:37:04.314Z,7.25
2018-03-19T07:39:31.842Z,6.70
2018-03-19T07:41:59.334Z,7.18
2018-03-19T07:44:26.806Z,6.40
2018-03-19T07:46:54.352Z,7.25
2018-03-19T07:49:21.866Z,7.28
2018-03-19T07:51:49.386Z,6.45
2018-03-19T07:54:17.674Z,8.05
2018-03-19T07:56:45.948Z,7.03
2018-03-19T07:59:14.308Z,6.75
2018-03-19T08:01:41.812Z,7.00
2018-03-19T08:04:09.301Z,7.75
2018-03-19T08:06:36.810Z,6.45
2018-03-19T08:09:05.117Z,7.32
2018-03-19T08:11:32.606Z,7.37
2018-03-19T08:14:00.094Z,8.07
2018-03-19T08:16:27.592Z,7.68
2018-03-19T08:18:55.078Z,7.95
2018-03-19T08:21:22.551Z,7.82
2018-03-19T08:23:50.086Z,8.05
2018-03-19T08:26:17.634Z,7.82
2018-03-19T08:31:19.755Z,8.13
2018-03-19T08:33:47.255Z,8.27
2018-03-19T08:36:14.759Z,6.72
2018-03-19T08:38:42.245Z,8.98
2018-03-19T08:41:10.497Z,7.28
2018-03-19T08:43:38.031Z,8.00
2018-03-19T08:46:05.504Z,8.25
2018-03-19T08:48:33.006Z,7.65
2018-03-19T08:51:01.283Z,8.88
2018-03-19T08:53:29.542Z,7.50
2018-03-19T08:55:57.020Z,7.05
2018-03-19T08:58:25.283Z,8.27
2018-03-19T09:00:53.554Z,9.73
2018-03-19T09:03:21.032Z,7.07
2018-03-19T09:05:49.283Z,7.47
2018-03-19T09:08:16.814Z,8.20
2018-03-19T09:10:44.302Z,7.80
2018-03-19T09:13:11.770Z,7.85
2018-03-19T09:15:40.054Z,7.32
2018-03-19T09:18:08.316Z,8.35
2018-03-19T09:20:36.557Z,7.03
2018-03-19T09:23:04.070Z,8.43
2018-03-19T09:25:32.322Z,8.07
2018-03-19T09:27:59.838Z,8.88
2018-03-19T09:30:27.381Z,8.05
2018-03-19T09:32:54.866Z,8.68
2018-03-19T09:35:22.354Z,8.30
2018-03-19T09:37:49.857Z,9.10
2018-03-19T09:40:17.338Z,7.12
2018-03-19T09:42:44.833Z,8.45
2018-03-19T09:45:13.107Z,7.10
2018-03-19T09:47:40.586Z,7.80
2018-03-19T09:50:08.827Z,8.85
2018-03-19T09:52:36.313Z,8.60
2018-03-19T09:55:04.566Z,8.25
2018-03-19T09:57:32.048Z,9.43
2018-03-19T10:00:00.309Z,9.73
2018-03-19T10:02:27.778Z,8.32
2018-03-19T10:04:56.022Z,9.00
2018-03-19T10:07:23.511Z,8.52
2018-03-19T10:09:51.774Z,9.00
2018-03-19T10:12:19.246Z,8.80
2018-03-19T10:14:47.523Z,7.80
2018-03-19T10:17:15.782Z,8.88
2018-03-19T10:19:43.254Z,8.45
2018-03-19T10:22:11.530Z,8.70
2018-03-19T10:24:39.770Z,9.40
2018-03-19T10:27:07.254Z,8.48
2018-03-19T10:29:35.529Z,8.80
2018-03-19T10:32:03.058Z,8.93
2018-03-19T10:34:30.549Z,8.15
2018-03-19T10:36:58.798Z,9.73
2018-03-19T10:39:26.281Z,10.02
2018-03-19T10:41:54.546Z,9.55
2018-03-19T10:44:22.059Z,9.10
2018-03-19T10:46:49.543Z,9.73
2018-03-19T10:49:17.022Z,9.60
2018-03-19T10:51:44.518Z,10.10
2018-03-19T10:54:11.990Z,8.90
2018-03-19T10:56:39.474Z,9.20
2018-03-19T10:59:07.940Z,10.55
2018-03-19T11:01:41.194Z,9.90
2018-03-19T11:04:14.075Z,10.18
2018-03-19T11:09:45.114Z,10.07
2018-03-19T11:12:12.748Z,9.40
2018-03-19T11:14:40.933Z,9.70
2018-03-19T11:17:08.419Z,9.88
2018-03-19T11:19:35.933Z,11.05
2018-03-19T11:22:03.427Z,11.70
2018-03-19T11:24:30.910Z,10.52
2018-03-19T11:26:59.177Z,10.05
2018-03-19T11:29:27.430Z,11.45
2018-03-19T11:31:54.911Z,10.32
2018-03-19T11:34:23.190Z,11.30
2018-03-19T11:36:51.438Z,10.48
2018-03-19T11:39:18.935Z,9.40
2018-03-19T11:41:47.246Z,11.00
2018-03-19T11:44:15.465Z,10.70
2018-03-19T11:46:42.940Z,10.35
2018-03-19T11:49:11.190Z,11.68
2018-03-19T11:51:38.679Z,10.98
2018-03-19T11:54:06.947Z,9.93
2018-03-19T11:56:35.231Z,10.85
2018-03-19T11:59:03.487Z,12.07
2018-03-19T12:01:30.963Z,12.00
2018-03-19T12:03:59.250Z,10.60
2018-03-19T12:06:27.562Z,11.20
2018-03-19T12:08:55.046Z,10.98
2018-03-19T12:11:22.538Z,12.00
2018-03-19T12:13:50.781Z,11.75
2018-03-19T12:16:18.266Z,9.77
2018-03-19T12:18:46.554Z,11.25
2018-03-19T12:21:14.835Z,12.35
2018-03-19T12:23:42.311Z,10.95
2018-03-19T12:26:09.801Z,10.88
2018-03-19T12:28:37.282Z,11.88
2018-03-19T12:31:04.775Z,10.45
2018-03-19T12:33:32.279Z,11.27
2018-03-19T12:35:59.797Z,12.07
2018-03-19T12:38:27.270Z,11.57
2018-03-19T12:40:54.770Z,12.10
2018-03-19T12:43:23.109Z,12.40
2018-03-19T12:45:50.604Z,11.68
2018-03-19T12:48:18.143Z,11.95
2018-03-19T12:50:45.634Z,11.70
2018-03-19T12:53:13.115Z,11.90
2018-03-19T12:55:40.620Z,12.73
2018-03-19T12:58:08.111Z,12.90
2018-03-19T13:00:36.371Z,11.60
2018-03-19T13:03:05.370Z,12.20
2018-03-19T13:05:32.856Z,12.37
2018-03-19T13:08:01.142Z,11.52
2018-03-19T13:10:28.658Z,13.93
2018-03-19T13:12:56.234Z,13.68
2018-03-19T13:15:23.670Z,11.57
2018-03-19T13:17:51.165Z,11.63
2018-03-19T13:20:19.515Z,11.38
2018-03-19T13:22:46.999Z,10.98
2018-03-19T13:25:15.290Z,13.18
2018-03-19T13:27:42.774Z,14.20
2018-03-19T13:30:10.353Z,12.88
2018-03-19T13:32:37.848Z,16.02
2018-03-19T13:35:06.094Z,17.55
2018-03-19T13:37:33.600Z,13.90
2018-03-19T13:40:01.192Z,11.40
2018-03-19T13:42:28.573Z,12.35
2018-03-19T13:44:56.098Z,12.52
2018-03-19T13:47:23.677Z,13.73
2018-03-19T13:49:51.158Z,12.88
2018-03-19T13:52:18.669Z,12.13
2018-03-19T13:54:46.176Z,14.02
2018-03-19T13:57:13.662Z,12.70
2018-03-19T13:59:41.993Z,13.03
2018-03-19T14:02:09.490Z,14.43
2018-03-19T14:04:37.734Z,13.93
2018-03-19T14:07:05.235Z,13.03
2018-03-19T14:09:32.758Z,12.80
2018-03-19T14:12:00.246Z,14.17
2018-03-19T14:14:28.492Z,13.47
2018-03-19T14:16:55.987Z,12.67
2018-03-19T14:19:23.478Z,12.93
2018-03-19T14:21:50.958Z,12.33
2018-03-19T14:24:18.486Z,14.00
2018-03-19T14:26:45.970Z,15.50
2018-03-19T14:29:13.495Z,14.40
2018-03-19T14:31:41.017Z,15.07
2018-03-19T14:34:09.341Z,13.67
2018-03-19T14:36:36.833Z,13.90
2018-03-19T14:39:04.321Z,13.50
2018-03-19T14:41:32.602Z,12.37
2018-03-19T14:44:00.858Z,13.10
2018-03-19T14:46:28.338Z,14.17
2018-03-19T14:48:55.845Z,14.43
2018-03-19T14:51:23.342Z,15.10
2018-03-19T14:53:51.593Z,13.40
2018-03-19T14:56:19.093Z,12.27
2018-03-19T14:58:46.589Z,14.60
2018-03-19T15:01:14.869Z,13.20
2018-03-19T15:03:42.378Z,12.60
2018-03-19T15:06:09.862Z,14.60
2018-03-19T15:08:37.355Z,14.30
2018-03-19T15:11:04.868Z,11.80
2018-03-19T15:13:32.364Z,13.63
2018-03-19T15:15:59.850Z,14.03
2018-03-19T15:18:28.145Z,12.63
2018-03-19T15:20:55.634Z,12.90
2018-03-19T15:23:23.133Z,15.10
2018-03-19T15:25:50.679Z,18.83
2018-03-19T15:28:18.239Z,13.98
2018-03-19T15:30:45.734Z,16.30
2018-03-19T15:33:13.249Z,14.70
2018-03-19T15:35:40.743Z,13.97
2018-03-19T15:38:09.019Z,11.77
2018-03-19T15:40:37.398Z,11.50
2018-03-19T15:43:05.654Z,14.30
2018-03-19T15:45:33.158Z,13.70
2018-03-19T15:48:00.646Z,20.10
2018-03-19T15:50:28.155Z,13.03
2018-03-19T15:52:56.522Z,13.37
2018-03-19T15:55:24.778Z,12.83
2018-03-19T15:57:52.279Z,12.90
2018-03-19T16:00:19.798Z,13.40
2018-03-19T16:02:47.387Z,12.70
2018-03-19T16:05:15.634Z,17.57
2018-03-19T16:07:43.191Z,15.90
2018-03-19T16:10:10.686Z,14.57
2018-03-19T16:12:39.002Z,12.70
2018-03-19T16:15:06.574Z,13.02
2018-03-19T16:17:34.076Z,12.95
2018-03-19T16:20:01.570Z,11.77
2018-03-19T16:22:29.190Z,16.50
2018-03-19T16:24:57.472Z,15.00
2018-03-19T16:27:25.037Z,14.25
2018-03-19T16:29:52.525Z,15.30
2018-03-19T16:32:20.143Z,12.93
2018-03-19T16:34:47.730Z,12.00
2018-03-19T16:37:15.220Z,11.43
2018-03-19T16:39:42.722Z,11.75
2018-03-19T16:42:11.081Z,13.80
2018-03-19T16:44:39.290Z,18.30
2018-03-19T16:47:06.789Z,15.20
2018-03-19T16:49:34.346Z,11.80
2018-03-19T16:52:02.649Z,11.15
2018-03-19T16:54:30.215Z,10.80
2018-03-19T16:56:58.490Z,10.20
2018-03-19T16:59:26.015Z,9.88
2018-03-19T17:01:53.579Z,13.80
2018-03-19T17:04:21.182Z,14.30
2018-03-19T17:06:49.499Z,12.85
2018-03-19T17:09:17.159Z,15.40
2018-03-19T17:11:44.723Z,9.88
2018-03-19T17:14:12.315Z,9.30
2018-03-19T17:16:39.834Z,10.05
2018-03-19T17:19:07.499Z,10.02
2018-03-19T17:21:35.035Z,9.55
2018-03-19T17:24:03.372Z,12.00
2018-03-19T17:26:31.051Z,13.40
2018-03-19T17:28:58.619Z,14.00
2018-03-19T17:31:26.935Z,10.57
2018-03-19T17:33:54.494Z,8.82
2018-03-19T17:36:22.062Z,9.45
2018-03-19T17:38:49.610Z,9.70
2018-03-19T17:41:17.272Z,10.35
2018-03-19T17:43:44.758Z,17.95
2018-03-19T17:46:12.343Z,14.85
2018-03-19T17:48:40.726Z,11.93
2018-03-19T17:51:08.275Z,10.20
2018-03-19T17:53:36.655Z,8.70
2018-03-19T17:56:05.192Z,8.25
2018-03-19T17:58:32.751Z,9.60
2018-03-19T18:01:00.345Z,17.83
2018-03-19T18:03:27.922Z,10.70
2018-03-19T18:05:56.361Z,29.70
2018-03-19T18:08:23.923Z,15.52
2018-03-19T18:10:51.418Z,10.20
2018-03-19T18:13:18.963Z,9.10
2018-03-19T18:15:46.531Z,7.62
2018-03-19T18:18:14.116Z,8.98
2018-03-19T18:20:41.629Z,9.75
2018-03-19T18:23:09.203Z,15.57
2018-03-19T18:25:36.732Z,13.32
2018-03-19T18:28:04.280Z,13.65
2018-03-19T18:30:31.766Z,8.95
2018-03-19T18:33:00.426Z,7.65
2018-03-19T18:35:27.970Z,7.40
2018-03-19T18:37:56.238Z,8.50
2018-03-19T18:40:24.514Z,11.27
2018-03-19T18:42:52.762Z,12.95
2018-03-19T18:45:20.274Z,20.15
2018-03-19T18:47:47.916Z,15.15
2018-03-19T18:50:15.434Z,11.55
2018-03-19T18:52:42.916Z,8.75
2018-03-19T18:55:10.466Z,8.65
2018-03-19T18:57:38.000Z,8.20
2018-03-19T19:00:05.688Z,8.98
2018-03-19T19:02:33.965Z,14.95
2018-03-19T19:05:01.507Z,23.67
2018-03-19T19:07:29.021Z,10.82
2018-03-19T19:09:57.371Z,9.00
2018-03-19T19:12:24.937Z,9.43
2018-03-19T19:14:52.476Z,7.65
2018-03-19T19:17:19.995Z,8.55
2018-03-19T19:19:47.663Z,8.27
2018-03-19T19:22:15.195Z,8.25
2018-03-19T19:24:43.564Z,10.25
2018-03-19T19:27:11.883Z,7.75
2018-03-19T19:29:39.484Z,7.30
2018-03-19T19:32:07.058Z,8.85
2018-03-19T19:34:35.453Z,7.40
2018-03-19T19:37:03.881Z,8.20
2018-03-19T19:39:31.455Z,9.57
2018-03-19T19:41:59.881Z,8.10
2018-03-19T19:44:27.474Z,8.75
2018-03-19T19:46:55.352Z,8.05
2018-03-19T19:49:23.674Z,8.38
2018-03-19T19:51:52.089Z,8.93
2018-03-19T19:54:19.719Z,8.82
2018-03-19T19:56:47.424Z,9.60
2018-03-19T19:59:15.027Z,8.75
2018-03-19T20:01:42.601Z,8.02
2018-03-19T20:04:10.957Z,8.27
2018-03-19T20:06:38.434Z,9.38
2018-03-19T20:09:06.745Z,8.57
2018-03-19T20:11:34.320Z,8.40
2018-03-19T20:14:01.842Z,9.07
2018-03-19T20:16:30.180Z,7.35
2018-03-19T20:18:57.923Z,7.40
2018-03-19T20:21:26.254Z,8.35
2018-03-19T20:23:54.676Z,7.70
2018-03-19T20:26:23.258Z,8.13
2018-03-19T20:28:51.764Z,7.95
2018-03-19T20:31:19.246Z,8.27
2018-03-19T20:33:46.795Z,8.00
2018-03-19T20:36:14.315Z,8.48
2018-03-19T20:38:41.828Z,8.88
2018-03-19T20:41:10.182Z,8.20
2018-03-19T20:43:37.756Z,8.20
2018-03-19T20:46:05.286Z,7.30
2018-03-19T20:48:32.795Z,6.60
2018-03-19T20:51:01.354Z,8.02
2018-03-19T20:53:28.863Z,7.90
2018-03-19T20:55:56.432Z,7.22
2018-03-19T20:58:23.918Z,6.97
2018-03-19T21:00:51.438Z,7.20
2018-03-19T21:03:18.966Z,6.05
2018-03-19T21:05:46.496Z,6.95
2018-03-19T21:08:14.863Z,6.50
2018-03-19T21:10:43.255Z,6.90
2018-03-19T21:13:10.802Z,5.80
2018-03-19T21:15:38.372Z,6.25
2018-03-19T21:18:05.900Z,6.47
2018-03-19T21:20:33.405Z,6.30
2018-03-19T21:23:00.902Z,5.30
2018-03-19T21:25:28.485Z,7.35
2018-03-19T21:27:55.999Z,6.10
2018-03-19T21:30:24.272Z,5.62
2018-03-19T21:32:51.802Z,6.57
2018-03-19T21:35:19.451Z,6.03
2018-03-19T21:37:47.029Z,5.72
2018-03-19T21:40:14.599Z,6.72
2018-03-19T21:42:43.037Z,6.03
2018-03-19T21:45:10.627Z,5.68
2018-03-19T21:47:38.122Z,6.40
2018-03-19T21:50:06.452Z,6.43
2018-03-19T21:52:34.035Z,5.53
2018-03-19T21:55:01.575Z,5.45
2018-03-19T21:57:29.156Z,6.00
2018-03-19T21:59:57.537Z,5.30
2018-03-19T22:02:25.102Z,5.60
2018-03-19T22:04:52.622Z,6.40
2018-03-19T22:07:20.150Z,6.12
2018-03-19T22:09:48.448Z,5.70
2018-03-19T22:12:15.995Z,5.95
2018-03-19T22:14:43.515Z,5.37
2018-03-19T22:17:11.147Z,6.90
2018-03-19T22:19:39.843Z,5.60
2018-03-19T22:22:08.802Z,6.28
2018-03-19T22:24:38.698Z,5.25
2018-03-19T22:30:21.806Z,5.82
2018-03-19T22:32:49.339Z,6.62
2018-03-19T22:35:22.276Z,6.22
2018-03-19T22:37:57.242Z,6.47
2018-03-19T22:40:25.255Z,5.50
2018-03-19T22:42:52.830Z,6.18
2018-03-19T22:45:22.786Z,6.10
2018-03-19T22:47:50.631Z,6.05
2018-03-19T22:50:23.158Z,6.75
2018-03-19T22:52:52.511Z,6.72
2018-03-19T22:55:31.934Z,6.07
2018-03-19T22:58:14.321Z,6.05
2018-03-19T23:00:41.901Z,5.57
2018-03-19T23:03:10.692Z,6.53
2018-03-19T23:05:47.841Z,6.75
2018-03-19T23:08:24.801Z,6.85
2018-03-19T23:10:57.230Z,6.30
2018-03-19T23:13:24.914Z,5.75
2018-03-19T23:15:52.396Z,6.20
2018-03-19T23:18:19.878Z,6.57
2018-03-19T23:20:47.414Z,7.05
2018-03-19T23:23:15.128Z,6.00
2018-03-19T23:25:43.751Z,5.93
2018-03-19T23:28:11.624Z,6.78
2018-03-19T23:30:39.155Z,6.75
2018-03-19T23:33:07.431Z,6.00
2018-03-19T23:35:35.738Z,7.60
2018-03-19T23:38:03.382Z,6.20
2018-03-19T23:40:31.054Z,6.85
2018-03-19T23:42:58.688Z,6.07
2018-03-19T23:45:26.202Z,7.30
2018-03-19T23:47:53.703Z,7.05
2018-03-19T23:50:22.065Z,7.05
2018-03-19T23:52:50.358Z,6.00
2018-03-19T23:55:18.758Z,7.37
2018-03-19T23:57:47.143Z,6.75
